createdAt,value
2018-08-16T00:00:37.394Z,97010.53
2018-08-16T00:03:06.706Z,97011.23
2018-08-16T00:05:35.537Z,97015.50
2018-08-16T00:08:04.715Z,97012.23
2018-08-16T00:10:33.563Z,97012.00
2018-08-16T00:13:02.406Z,97004.48
2018-08-16T00:15:31.244Z,97003.42
2018-08-16T00:18:00.035Z,97001.96
2018-08-16T00:20:28.790Z,96994.39
2018-08-16T00:22:59.119Z,96998.42
2018-08-16T00:25:28.999Z,96998.30
2018-08-16T00:27:58.024Z,96994.64
2018-08-16T00:30:26.827Z,96989.00
2018-08-16T00:32:57.862Z,96987.00
2018-08-16T00:35:26.683Z,96990.50
2018-08-16T00:37:55.494Z,96991.80
2018-08-16T00:40:26.337Z,96989.05
2018-08-16T00:42:56.150Z,96988.81
2018-08-16T00:45:27.480Z,96984.09
2018-08-16T00:47:56.678Z,96991.22
2018-08-16T00:50:25.869Z,96981.60
2018-08-16T00:52:54.855Z,96980.73
2018-08-16T00:55:24.351Z,96975.89
2018-08-16T00:57:53.360Z,96972.03
2018-08-16T01:00:22.914Z,96972.31
2018-08-16T01:02:52.240Z,96968.33
2018-08-16T01:05:22.244Z,96964.48
2018-08-16T01:07:52.056Z,96959.67
2018-08-16T01:10:21.117Z,96956.16
2018-08-16T01:12:50.292Z,96956.64
2018-08-16T01:15:21.552Z,96956.64
2018-08-16T01:17:50.642Z,96957.70
2018-08-16T01:20:21.677Z,96951.20
2018-08-16T01:22:51.137Z,96947.23
2018-08-16T01:25:22.492Z,96951.52
2018-08-16T01:27:53.468Z,96948.62
2018-08-16T01:30:25.070Z,96945.89
2018-08-16T01:32:54.102Z,96943.22
2018-08-16T01:35:24.376Z,96943.44
2018-08-16T01:37:53.648Z,96939.09
2018-08-16T01:40:24.815Z,96940.02
2018-08-16T01:42:56.128Z,96939.55
2018-08-16T01:45:25.545Z,96930.97
2018-08-16T01:47:57.284Z,96930.26
2018-08-16T01:50:26.372Z,96932.85
2018-08-16T01:52:55.601Z,96930.34
2018-08-16T01:55:24.388Z,96925.39
2018-08-16T01:57:53.168Z,96929.01
2018-08-16T02:00:22.017Z,96930.50
2018-08-16T02:02:50.846Z,96933.03
2018-08-16T02:05:19.762Z,96924.01
2018-08-16T02:07:48.485Z,96921.58
2018-08-16T02:10:19.094Z,96919.28
2018-08-16T02:12:48.510Z,96920.19
2018-08-16T02:15:17.342Z,96921.49
2018-08-16T02:17:46.140Z,96920.54
2018-08-16T02:20:15.681Z,96918.02
2018-08-16T02:22:45.998Z,96920.02
2018-08-16T02:25:14.882Z,96923.56
2018-08-16T02:27:44.876Z,96922.07
2018-08-16T02:30:15.736Z,96915.38
2018-08-16T02:32:44.542Z,96918.94
2018-08-16T02:35:13.474Z,96919.45
2018-08-16T02:37:42.961Z,96913.70
2018-08-16T02:40:12.693Z,96912.11
2018-08-16T02:42:41.455Z,96916.86
2018-08-16T02:45:10.307Z,96905.97
2018-08-16T02:47:39.061Z,96910.92
2018-08-16T02:50:10.558Z,96904.58
2018-08-16T02:52:39.345Z,96906.18
2018-08-16T02:55:08.296Z,96910.11
2018-08-16T02:57:38.236Z,96909.91
2018-08-16T03:00:09.724Z,96907.65
2018-08-16T03:02:40.256Z,96910.38
2018-08-16T03:05:10.618Z,96906.39
2018-08-16T03:07:39.455Z,96907.23
2018-08-16T03:10:09.935Z,96904.14
2018-08-16T03:12:40.355Z,96905.60
2018-08-16T03:15:10.326Z,96903.38
2018-08-16T03:17:40.408Z,96905.46
2018-08-16T03:20:09.524Z,96904.67
2018-08-16T03:22:39.223Z,96899.05
2018-08-16T03:25:08.030Z,96900.41
2018-08-16T03:27:36.789Z,96892.92
2018-08-16T03:30:05.877Z,96895.45
2018-08-16T03:32:34.641Z,96902.10
2018-08-16T03:35:03.476Z,96889.89
2018-08-16T03:37:32.272Z,96892.45
2018-08-16T03:40:01.265Z,96900.08
2018-08-16T03:42:30.056Z,96892.67
2018-08-16T03:44:58.814Z,96889.30
2018-08-16T03:47:27.598Z,96889.56
2018-08-16T03:49:57.288Z,96886.19
2018-08-16T03:52:26.178Z,96877.35
2018-08-16T03:54:56.084Z,96880.55
2018-08-16T03:57:24.865Z,96882.97
2018-08-16T03:59:53.713Z,96885.59
2018-08-16T04:02:23.984Z,96877.03
2018-08-16T04:04:53.882Z,96879.89
2018-08-16T04:07:23.494Z,96879.17
2018-08-16T04:09:54.517Z,96879.72
2018-08-16T04:12:23.331Z,96878.93
2018-08-16T04:14:53.691Z,96879.32
2018-08-16T04:17:29.726Z,96879.56
2018-08-16T04:19:59.946Z,96886.50
2018-08-16T04:22:30.291Z,96884.27
2018-08-16T04:25:00.253Z,96883.18
2018-08-16T04:27:30.609Z,96885.69
2018-08-16T04:30:00.763Z,96886.28
2018-08-16T04:32:29.525Z,96889.69
2018-08-16T04:34:58.341Z,96892.41
2018-08-16T04:37:27.124Z,96888.79
2018-08-16T04:39:57.325Z,96885.44
2018-08-16T04:42:31.376Z,96889.09
2018-08-16T04:45:00.422Z,96883.06
2018-08-16T04:47:29.233Z,96888.24
2018-08-16T04:49:58.323Z,96888.48
2018-08-16T04:52:27.639Z,96889.55
2018-08-16T04:54:56.549Z,96890.27
2018-08-16T04:57:25.579Z,96891.73
2018-08-16T05:00:02.041Z,96889.02
2018-08-16T05:02:30.807Z,96890.77
2018-08-16T05:05:00.129Z,96893.84
2018-08-16T05:07:29.063Z,96889.58
2018-08-16T05:09:59.437Z,96894.36
2018-08-16T05:12:29.921Z,96891.95
2018-08-16T05:15:00.116Z,96889.97
2018-08-16T05:17:29.316Z,96892.19
2018-08-16T05:19:58.172Z,96894.44
2018-08-16T05:22:26.972Z,96896.38
2018-08-16T05:24:55.727Z,96900.91
2018-08-16T05:27:24.546Z,96897.55
2018-08-16T05:29:53.296Z,96891.77
2018-08-16T05:32:22.077Z,96895.12
2018-08-16T05:34:50.828Z,96889.57
2018-08-16T05:37:20.073Z,96887.92
2018-08-16T05:39:49.215Z,96891.20
2018-08-16T05:42:18.437Z,96890.26
2018-08-16T05:44:47.608Z,96895.36
2018-08-16T05:47:16.709Z,96893.26
2018-08-16T05:49:45.684Z,96884.17
2018-08-16T05:52:14.797Z,96883.02
2018-08-16T05:54:43.853Z,96887.91
2018-08-16T05:57:12.889Z,96889.03
2018-08-16T05:59:42.004Z,96884.23
2018-08-16T06:02:10.968Z,96882.19
2018-08-16T06:04:40.065Z,96884.30
2018-08-16T06:07:09.100Z,96883.23
2018-08-16T06:09:38.356Z,96885.00
2018-08-16T06:12:07.152Z,96880.30
2018-08-16T06:14:36.352Z,96878.42
2018-08-16T06:17:05.460Z,96877.67
2018-08-16T06:19:34.689Z,96880.42
2018-08-16T06:22:03.944Z,96882.36
2018-08-16T06:24:32.913Z,96877.08
2018-08-16T06:27:02.032Z,96878.55
2018-08-16T06:29:31.532Z,96880.40
2018-08-16T06:32:00.732Z,96882.41
2018-08-16T06:34:29.733Z,96875.48
2018-08-16T06:36:58.828Z,96879.39
2018-08-16T06:39:27.738Z,96877.39
2018-08-16T06:41:56.868Z,96877.72
2018-08-16T06:44:26.056Z,96867.89
2018-08-16T06:46:55.320Z,96869.50
2018-08-16T06:49:24.388Z,96866.83
2018-08-16T06:51:53.589Z,96868.24
2018-08-16T06:54:22.806Z,96864.56
2018-08-16T06:56:51.997Z,96865.30
2018-08-16T06:59:20.888Z,96857.60
2018-08-16T07:01:49.949Z,96857.45
2018-08-16T07:04:19.060Z,96852.02
2018-08-16T07:06:47.954Z,96860.41
2018-08-16T07:09:16.960Z,96846.71
2018-08-16T07:11:45.936Z,96843.50
2018-08-16T07:14:14.837Z,96843.42
2018-08-16T07:16:43.675Z,96841.74
2018-08-16T07:19:12.472Z,96842.86
2018-08-16T07:21:41.485Z,96837.13
2018-08-16T07:24:10.261Z,96840.43
2018-08-16T07:26:39.046Z,96842.38
2018-08-16T07:29:07.840Z,96837.65
2018-08-16T07:31:36.672Z,96843.52
2018-08-16T07:34:05.490Z,96844.66
2018-08-16T07:36:34.295Z,96845.69
2018-08-16T07:47:09.540Z,96841.08
2018-08-16T07:49:38.307Z,96838.36
2018-08-16T07:52:07.205Z,96842.91
2018-08-16T07:54:35.972Z,96835.02
2018-08-16T07:57:05.021Z,96835.42
2018-08-16T07:59:33.805Z,96833.71
2018-08-16T08:02:02.560Z,96834.04
2018-08-16T08:04:31.319Z,96834.97
2018-08-16T08:07:00.094Z,96835.54
2018-08-16T08:09:29.081Z,96835.08
2018-08-16T08:11:57.702Z,96838.03
2018-08-16T08:14:26.468Z,96835.23
2018-08-16T08:16:55.277Z,96837.52
2018-08-16T08:19:24.160Z,96839.86
2018-08-16T08:21:52.996Z,96843.16
2018-08-16T08:24:21.755Z,96835.32
2018-08-16T08:26:50.525Z,96831.16
2018-08-16T08:29:19.280Z,96833.27
2018-08-16T08:31:48.161Z,96836.38
2018-08-16T08:34:16.842Z,96837.53
2018-08-16T08:36:56.724Z,96837.45
2018-08-16T08:39:25.518Z,96834.64
2018-08-16T08:41:54.302Z,96830.16
2018-08-16T08:44:24.601Z,96826.64
2018-08-16T08:46:53.809Z,96819.64
2018-08-16T08:49:22.709Z,96821.34
2018-08-16T08:51:52.500Z,96819.01
2018-08-16T08:54:39.433Z,96814.28
2018-08-16T08:57:19.341Z,96818.25
2018-08-16T08:59:48.119Z,96813.03
2018-08-16T09:02:17.059Z,96813.53
2018-08-16T09:04:45.851Z,96812.92
2018-08-16T09:07:15.952Z,96817.39
2018-08-16T09:11:01.040Z,96807.23
2018-08-16T09:13:41.195Z,96799.19
2018-08-16T09:16:17.417Z,96797.05
2018-08-16T09:18:46.173Z,96794.21
2018-08-16T09:21:15.341Z,96791.29
2018-08-16T09:23:44.148Z,96789.64
2018-08-16T09:26:18.068Z,96785.53
2018-08-16T09:28:46.804Z,96782.30
2018-08-16T09:31:27.143Z,96794.11
2018-08-16T09:34:34.248Z,96788.80
2018-08-16T09:37:03.007Z,96774.28
2018-08-16T09:39:31.794Z,96775.73
2018-08-16T09:42:00.559Z,96768.20
2018-08-16T09:44:29.342Z,96766.86
2018-08-16T09:47:10.923Z,96760.25
2018-08-16T09:49:43.596Z,96769.14
2018-08-16T09:52:13.202Z,96762.13
2018-08-16T09:54:41.996Z,96756.44
2018-08-16T09:57:11.779Z,96761.55
2018-08-16T09:59:40.580Z,96756.44
2018-08-16T10:02:11.365Z,96758.17
2018-08-16T10:04:40.029Z,96750.62
2018-08-16T10:07:08.817Z,96756.67
2018-08-16T10:09:37.584Z,96747.73
2018-08-16T10:12:06.414Z,96748.13
2018-08-16T10:14:35.218Z,96743.96
2018-08-16T10:17:04.086Z,96745.45
2018-08-16T10:19:32.869Z,96740.16
2018-08-16T10:22:01.644Z,96737.12
2018-08-16T10:24:30.432Z,96739.40
2018-08-16T10:26:59.264Z,96735.23
2018-08-16T10:29:27.961Z,96727.25
2018-08-16T10:31:56.717Z,96723.67
2018-08-16T10:34:25.472Z,96726.52
2018-08-16T10:36:54.264Z,96726.52
2018-08-16T10:39:23.065Z,96718.37
2018-08-16T10:41:51.841Z,96717.41
2018-08-16T10:44:20.610Z,96714.94
2018-08-16T10:46:49.396Z,96709.78
2018-08-16T10:49:18.176Z,96716.45
2018-08-16T10:51:46.936Z,96710.00
2018-08-16T10:54:15.738Z,96702.18
2018-08-16T10:56:44.535Z,96695.16
2018-08-16T10:59:13.301Z,96698.54
2018-08-16T11:01:42.185Z,96694.95
2018-08-16T11:04:11.024Z,96704.53
2018-08-16T11:06:39.778Z,96699.47
2018-08-16T11:09:09.835Z,96689.81
2018-08-16T11:11:38.912Z,96688.20
2018-08-16T11:14:07.684Z,96685.02
2018-08-16T11:16:36.438Z,96677.40
2018-08-16T11:19:05.181Z,96664.09
2018-08-16T11:21:33.970Z,96683.89
2018-08-16T11:24:02.736Z,96686.48
2018-08-16T11:26:31.516Z,96675.05
2018-08-16T11:29:00.281Z,96673.87
2018-08-16T11:31:29.033Z,96670.36
2018-08-16T11:33:57.824Z,96666.36
2018-08-16T11:36:26.605Z,96669.02
2018-08-16T11:38:55.421Z,96660.13
2018-08-16T11:41:24.198Z,96663.98
2018-08-16T11:43:52.921Z,96657.70
2018-08-16T11:46:21.645Z,96659.30
2018-08-16T11:48:50.418Z,96652.63
2018-08-16T11:51:19.152Z,96647.95
2018-08-16T11:53:47.901Z,96654.26
2018-08-16T11:56:16.676Z,96660.43
2018-08-16T11:58:45.482Z,96653.34
2018-08-16T12:01:14.220Z,96653.65
2018-08-16T12:03:42.978Z,96646.79
2018-08-16T12:06:11.775Z,96644.37
2018-08-16T12:08:40.542Z,96644.08
2018-08-16T12:11:09.510Z,96636.13
2018-08-16T12:13:38.249Z,96638.62
2018-08-16T12:16:07.060Z,96637.67
2018-08-16T12:18:35.812Z,96630.13
2018-08-16T12:21:04.591Z,96636.19
2018-08-16T12:23:33.401Z,96630.38
2018-08-16T12:26:02.180Z,96626.30
2018-08-16T12:28:30.928Z,96625.70
2018-08-16T12:30:59.747Z,96627.51
2018-08-16T12:33:28.512Z,96627.14
2018-08-16T12:35:57.262Z,96617.66
2018-08-16T12:38:26.020Z,96612.03
2018-08-16T12:40:54.818Z,96615.41
2018-08-16T12:43:23.873Z,96609.11
2018-08-16T12:45:52.640Z,96612.34
2018-08-16T12:48:21.394Z,96605.90
2018-08-16T12:50:50.154Z,96608.91
2018-08-16T12:53:18.897Z,96602.31
2018-08-16T12:55:47.698Z,96597.50
2018-08-16T12:58:16.470Z,96596.86
2018-08-16T13:00:45.217Z,96595.11
2018-08-16T13:03:14.005Z,96594.05
2018-08-16T13:05:42.795Z,96583.72
2018-08-16T13:08:11.672Z,96585.98
2018-08-16T13:10:40.440Z,96592.78
2018-08-16T13:13:09.239Z,96579.67
2018-08-16T13:15:38.017Z,96577.75
2018-08-16T13:18:06.849Z,96576.41
2018-08-16T13:20:35.609Z,96571.78
2018-08-16T13:23:04.438Z,96573.19
2018-08-16T13:25:33.251Z,96570.23
2018-08-16T13:28:02.064Z,96567.82
2018-08-16T13:30:30.788Z,96560.00
2018-08-16T13:32:59.579Z,96564.00
2018-08-16T13:35:28.326Z,96566.38
2018-08-16T13:37:57.132Z,96558.61
2018-08-16T13:40:25.940Z,96562.13
2018-08-16T13:42:54.725Z,96559.36
2018-08-16T13:45:23.543Z,96555.42
2018-08-16T13:47:52.314Z,96558.09
2018-08-16T13:50:21.105Z,96556.67
2018-08-16T13:52:49.872Z,96544.39
2018-08-16T13:55:18.676Z,96553.38
2018-08-16T13:57:47.477Z,96548.50
2018-08-16T14:00:16.284Z,96542.83
2018-08-16T14:02:45.033Z,96544.03
2018-08-16T14:05:13.819Z,96535.19
2018-08-16T14:07:42.592Z,96528.96
2018-08-16T14:10:11.403Z,96527.77
2018-08-16T14:12:40.203Z,96526.55
2018-08-16T14:15:09.076Z,96527.79
2018-08-16T14:17:37.844Z,96518.86
2018-08-16T14:20:07.064Z,96514.59
2018-08-16T14:22:35.855Z,96511.63
2018-08-16T14:25:05.172Z,96516.95
2018-08-16T14:27:33.949Z,96512.36
2018-08-16T14:30:02.725Z,96508.69
2018-08-16T14:32:31.563Z,96514.97
2018-08-16T14:35:00.268Z,96507.31
2018-08-16T14:37:29.064Z,96508.20
2018-08-16T14:39:57.853Z,96506.05
2018-08-16T14:42:26.733Z,96504.72
2018-08-16T14:44:55.507Z,96505.02
2018-08-16T14:47:24.584Z,96506.62
2018-08-16T14:49:53.400Z,96506.11
2018-08-16T14:52:22.201Z,96503.81
2018-08-16T14:54:51.030Z,96504.89
2018-08-16T14:57:19.789Z,96499.50
2018-08-16T14:59:48.556Z,96490.34
2018-08-16T15:02:17.352Z,96495.44
2018-08-16T15:04:46.168Z,96488.66
2018-08-16T15:07:14.931Z,96488.48
2018-08-16T15:09:43.688Z,96496.29
2018-08-16T15:12:12.456Z,96497.00
2018-08-16T15:14:41.229Z,96493.33
2018-08-16T15:17:10.033Z,96485.88
2018-08-16T15:19:38.854Z,96484.72
2018-08-16T15:22:07.729Z,96484.61
2018-08-16T15:24:36.481Z,96483.90
2018-08-16T15:27:05.309Z,96479.37
2018-08-16T15:29:34.079Z,96484.38
2018-08-16T15:32:02.844Z,96487.49
2018-08-16T15:34:31.576Z,96487.43
2018-08-16T15:37:00.355Z,96485.88
2018-08-16T15:39:29.116Z,96485.11
2018-08-16T15:41:57.887Z,96478.70
2018-08-16T15:44:26.638Z,96477.85
2018-08-16T15:46:55.397Z,96478.63
2018-08-16T15:49:24.160Z,96471.06
2018-08-16T15:51:52.945Z,96471.16
2018-08-16T15:54:21.722Z,96472.28
2018-08-16T15:56:50.484Z,96467.38
2018-08-16T15:59:19.325Z,96468.19
2018-08-16T16:01:48.032Z,96465.61
2018-08-16T16:04:16.785Z,96464.93
2018-08-16T16:06:45.578Z,96463.53
2018-08-16T16:09:14.336Z,96455.81
2018-08-16T16:11:43.080Z,96450.61
2018-08-16T16:14:11.837Z,96447.65
2018-08-16T16:16:40.604Z,96444.73
2018-08-16T16:19:09.395Z,96443.02
2018-08-16T16:21:38.124Z,96445.84
2018-08-16T16:24:06.959Z,96441.61
2018-08-16T16:26:35.714Z,96435.22
2018-08-16T16:29:04.536Z,96443.44
2018-08-16T16:31:33.286Z,96440.90
2018-08-16T16:34:02.032Z,96439.14
2018-08-16T16:36:30.793Z,96427.45
2018-08-16T16:38:59.556Z,96434.95
2018-08-16T16:41:28.336Z,96433.45
2018-08-16T16:43:57.125Z,96433.11
2018-08-16T16:46:25.881Z,96427.41
2018-08-16T16:48:54.647Z,96424.14
2018-08-16T16:51:23.389Z,96429.70
2018-08-16T16:53:52.140Z,96428.17
2018-08-16T16:56:20.892Z,96420.60
2018-08-16T16:58:49.692Z,96419.16
2018-08-16T17:01:18.440Z,96421.64
2018-08-16T17:03:47.230Z,96428.14
2018-08-16T17:06:16.069Z,96420.20
2018-08-16T17:08:44.844Z,96421.19
2018-08-16T17:11:13.578Z,96425.69
2018-08-16T17:13:42.366Z,96427.00
2018-08-16T17:16:11.281Z,96424.53
2018-08-16T17:18:40.121Z,96418.23
2018-08-16T17:21:08.883Z,96419.20
2018-08-16T17:23:37.638Z,96417.98
2018-08-16T17:26:06.791Z,96420.64
2018-08-16T17:28:35.532Z,96422.66
2018-08-16T17:31:04.286Z,96423.72
2018-08-16T17:33:33.056Z,96417.13
2018-08-16T17:36:01.849Z,96412.79
2018-08-16T17:38:30.584Z,96417.84
2018-08-16T17:40:59.435Z,96415.69
2018-08-16T17:43:28.155Z,96415.34
2018-08-16T17:45:56.939Z,96414.17
2018-08-16T17:48:25.686Z,96416.91
2018-08-16T17:50:54.433Z,96418.70
2018-08-16T17:53:23.188Z,96418.56
2018-08-16T17:55:51.946Z,96423.23
2018-08-16T17:58:21.084Z,96415.30
2018-08-16T18:00:49.951Z,96411.03
2018-08-16T18:03:18.664Z,96411.64
2018-08-16T18:05:47.820Z,96412.63
2018-08-16T18:08:16.609Z,96410.37
2018-08-16T18:10:45.473Z,96414.39
2018-08-16T18:13:14.224Z,96416.89
2018-08-16T18:15:43.005Z,96418.40
2018-08-16T18:18:11.787Z,96414.59
2018-08-16T18:20:40.539Z,96420.47
2018-08-16T18:23:09.295Z,96431.83
2018-08-16T18:25:38.068Z,96423.63
2018-08-16T18:28:06.820Z,96433.02
2018-08-16T18:30:35.580Z,96431.66
2018-08-16T18:33:04.388Z,96435.62
2018-08-16T18:35:33.124Z,96436.83
2018-08-16T18:38:01.900Z,96438.41
2018-08-16T18:40:30.664Z,96436.47
2018-08-16T18:42:59.468Z,96432.37
2018-08-16T18:45:28.201Z,96429.23
2018-08-16T18:47:56.935Z,96435.89
2018-08-16T18:50:25.732Z,96431.71
2018-08-16T18:52:54.546Z,96440.87
2018-08-16T18:55:23.660Z,96440.92
2018-08-16T18:57:52.655Z,96443.57
2018-08-16T19:00:21.453Z,96448.50
2018-08-16T19:02:50.308Z,96444.22
2018-08-16T19:05:19.166Z,96452.93
2018-08-16T19:07:47.997Z,96453.96
2018-08-16T19:10:16.813Z,96447.81
2018-08-16T19:12:45.672Z,96453.47
2018-08-16T19:15:14.479Z,96449.96
2018-08-16T19:17:43.265Z,96454.06
2018-08-16T19:20:12.073Z,96459.13
2018-08-16T19:22:40.881Z,96460.18
2018-08-16T19:25:09.774Z,96459.33
2018-08-16T19:27:38.685Z,96457.31
2018-08-16T19:30:07.529Z,96462.63
2018-08-16T19:32:36.776Z,96455.52
2018-08-16T19:35:05.965Z,96460.34
2018-08-16T19:37:34.759Z,96458.26
2018-08-16T19:40:03.659Z,96456.36
2018-08-16T19:42:32.500Z,96458.61
2018-08-16T19:45:01.345Z,96453.86
2018-08-16T19:47:30.247Z,96455.90
2018-08-16T19:49:59.662Z,96457.14
2018-08-16T19:52:28.466Z,96454.95
2018-08-16T19:54:57.285Z,96451.92
2018-08-16T19:57:28.694Z,96456.00
2018-08-16T19:59:57.537Z,96451.52
2018-08-16T20:02:26.362Z,96452.84
2018-08-16T20:04:55.113Z,96451.23
2018-08-16T20:07:24.440Z,96453.31
2018-08-16T20:09:53.251Z,96446.27
2018-08-16T20:12:30.161Z,96449.73
2018-08-16T20:14:59.145Z,96448.38
2018-08-16T20:17:28.257Z,96442.30
2018-08-16T20:19:59.710Z,96451.09
2018-08-16T20:22:28.531Z,96448.73
2018-08-16T20:24:57.490Z,96452.27
2018-08-16T20:27:27.994Z,96459.67
2018-08-16T20:32:25.082Z,96452.52
2018-08-16T20:34:53.909Z,96460.07
2018-08-16T20:37:23.640Z,96456.48
2018-08-16T20:39:53.036Z,96458.08
2018-08-16T20:42:21.880Z,96457.70
2018-08-16T20:44:50.881Z,96457.13
2018-08-16T20:47:19.740Z,96462.80
2018-08-16T20:49:50.488Z,96458.98
2018-08-16T20:52:19.732Z,96461.69
2018-08-16T20:54:48.790Z,96459.93
2018-08-16T20:57:17.532Z,96461.33
2018-08-16T20:59:46.368Z,96464.77
2018-08-16T21:02:15.309Z,96464.03
2018-08-16T21:04:44.067Z,96462.02
2018-08-16T21:07:13.232Z,96466.16
2018-08-16T21:09:42.399Z,96467.48
2018-08-16T21:12:12.165Z,96463.33
2018-08-16T21:14:40.914Z,96470.14
2018-08-16T21:17:09.729Z,96464.66
2018-08-16T21:19:38.589Z,96463.48
2018-08-16T21:22:07.660Z,96464.39
2018-08-16T21:24:36.604Z,96462.47
2018-08-16T21:27:05.707Z,96462.75
2018-08-16T21:29:34.647Z,96467.11
2018-08-16T21:32:03.573Z,96468.30
2018-08-16T21:34:32.445Z,96467.35
2018-08-16T21:37:01.193Z,96466.16
2018-08-16T21:39:29.941Z,96470.83
2018-08-16T21:41:59.534Z,96465.13
2018-08-16T21:44:29.015Z,96463.72
2018-08-16T21:46:57.790Z,96464.41
2018-08-16T21:49:26.602Z,96458.82
2018-08-16T21:51:55.393Z,96458.70
2018-08-16T21:54:24.177Z,96463.86
2018-08-16T21:56:53.893Z,96463.80
2018-08-16T21:59:22.649Z,96467.59
2018-08-16T22:01:52.329Z,96467.38
2018-08-16T22:04:21.328Z,96474.68
2018-08-16T22:07:01.717Z,96469.82
2018-08-16T22:09:32.117Z,96472.15
2018-08-16T22:12:02.742Z,96470.00
2018-08-16T22:14:31.599Z,96467.20
2018-08-16T22:17:02.281Z,96468.90
2018-08-16T22:19:31.084Z,96465.68
2018-08-16T22:22:00.507Z,96471.84
2018-08-16T22:24:30.900Z,96471.66
2018-08-16T22:27:00.239Z,96467.48
2018-08-16T22:29:30.940Z,96469.69
2018-08-16T22:31:59.810Z,96472.48
2018-08-16T22:34:29.562Z,96471.66
2018-08-16T22:37:00.470Z,96471.53
2018-08-16T22:39:29.325Z,96478.58
2018-08-16T22:41:58.997Z,96479.98
2018-08-16T22:44:27.820Z,96481.47
2018-08-16T22:46:56.584Z,96479.22
2018-08-16T22:49:25.381Z,96482.58
2018-08-16T22:51:55.393Z,96478.75
2018-08-16T22:54:25.347Z,96484.32
2018-08-16T22:56:56.425Z,96479.03
2018-08-16T22:59:25.250Z,96471.33
2018-08-16T23:01:54.888Z,96473.63
2018-08-16T23:04:23.750Z,96477.94
2018-08-16T23:06:52.517Z,96474.34
2018-08-16T23:09:22.914Z,96466.91
2018-08-16T23:11:53.683Z,96475.54
2018-08-16T23:14:22.501Z,96470.87
2018-08-16T23:16:52.835Z,96474.22
2018-08-16T23:19:21.685Z,96469.58
2018-08-16T23:21:50.493Z,96466.75
2018-08-16T23:24:20.288Z,96462.00
2018-08-16T23:26:49.071Z,96466.21
2018-08-16T23:29:17.832Z,96466.59
2018-08-16T23:31:46.578Z,96460.08
2018-08-16T23:34:17.178Z,96457.25
2018-08-16T23:36:45.921Z,96458.09
2018-08-16T23:39:16.777Z,96454.95
2018-08-16T23:41:46.932Z,96453.05
2018-08-16T23:44:15.864Z,96455.42
2018-08-16T23:46:45.990Z,96453.47
2018-08-16T23:49:15.909Z,96448.16
2018-08-16T23:51:44.681Z,96447.06
2018-08-16T23:54:13.449Z,96454.04
2018-08-16T23:56:42.248Z,96451.42
2018-08-16T23:59:10.996Z,96451.55
